createdAt,value
2017-05-04T00:00:15.082Z,20.42
2017-05-04T00:01:24.754Z,20.27
2017-05-04T00:02:35.041Z,20.39
2017-05-04T00:03:45.875Z,20.48
2017-05-04T00:04:56.441Z,20.27
2017-05-04T00:06:05.794Z,20.32
2017-05-04T00:07:16.087Z,20.37
2017-05-04T00:08:26.057Z,20.34
2017-05-04T00:09:36.339Z,20.32
2017-05-04T00:10:46.890Z,20.3
2017-05-04T00:11:57.165Z,20.33
2017-05-04T00:13:07.144Z,20.3
2017-05-04T00:14:17.424Z,20.32
2017-05-04T00:15:27.404Z,20.32
2017-05-04T00:16:37.645Z,20.32
2017-05-04T00:17:47.928Z,20.33
2017-05-04T00:18:58.208Z,20.42
2017-05-04T00:20:08.187Z,20.34
2017-05-04T00:21:17.850Z,20.46
2017-05-04T00:22:28.076Z,20.33
2017-05-04T00:23:38.352Z,20.36
2017-05-04T00:24:48.637Z,20.33
2017-05-04T00:25:58.924Z,20.42
2017-05-04T00:27:08.884Z,20.42
2017-05-04T00:28:19.401Z,20.3
2017-05-04T00:29:29.728Z,20.29
2017-05-04T00:30:39.692Z,20.3
2017-05-04T00:31:49.964Z,20.36
2017-05-04T00:32:59.922Z,20.32
2017-05-04T00:34:10.127Z,20.3
2017-05-04T00:35:20.422Z,20.29
2017-05-04T00:36:30.391Z,20.39
2017-05-04T00:37:40.352Z,20.33
2017-05-04T00:38:50.627Z,20.3
2017-05-04T00:40:00.847Z,20.34
2017-05-04T00:41:11.137Z,20.33
2017-05-04T00:42:21.421Z,20.33
2017-05-04T00:43:31.697Z,20.29
2017-05-04T00:44:41.993Z,20.34
2017-05-04T00:45:51.904Z,20.36
2017-05-04T00:47:02.416Z,20.29
2017-05-04T00:48:12.377Z,20.33
2017-05-04T00:49:22.662Z,20.37
2017-05-04T00:50:32.947Z,20.33
2017-05-04T00:51:43.483Z,20.27
2017-05-04T00:52:53.778Z,20.32
2017-05-04T00:54:04.052Z,20.33
2017-05-04T00:55:14.018Z,20.36
2017-05-04T00:56:24.285Z,20.37
2017-05-04T00:57:34.510Z,20.32
2017-05-04T00:58:44.789Z,20.32
2017-05-04T00:59:54.440Z,20.19
2017-05-04T01:01:04.710Z,20.24
2017-05-04T01:02:14.981Z,20.36
2017-05-04T01:03:25.597Z,20.37
2017-05-04T01:04:35.873Z,20.37
2017-05-04T01:05:46.494Z,20.34
2017-05-04T01:06:56.467Z,20.33
2017-05-04T01:08:06.441Z,20.3
2017-05-04T01:09:17.308Z,20.36
2017-05-04T01:10:27.278Z,20.34
2017-05-04T01:11:37.248Z,20.3
2017-05-04T01:12:47.753Z,20.36
2017-05-04T01:13:58.043Z,20.32
2017-05-04T01:15:08.265Z,20.32
2017-05-04T01:16:18.547Z,20.39
2017-05-04T01:17:28.828Z,20.33
2017-05-04T01:18:39.107Z,20.36
2017-05-04T01:19:49.384Z,20.33
2017-05-04T01:20:59.919Z,20.36
2017-05-04T01:22:10.204Z,20.36
2017-05-04T01:23:20.486Z,20.3
2017-05-04T01:24:30.454Z,20.27
2017-05-04T01:25:40.107Z,20.34
2017-05-04T01:26:50.634Z,20.32
2017-05-04T01:28:00.604Z,20.34
2017-05-04T01:29:10.886Z,20.32
2017-05-04T01:30:20.856Z,20.34
2017-05-04T01:31:31.133Z,20.34
2017-05-04T01:32:41.342Z,20.33
2017-05-04T01:33:51.625Z,20.34
2017-05-04T01:35:01.921Z,20.24
2017-05-04T01:36:12.202Z,20.3
2017-05-04T01:37:22.175Z,20.34
2017-05-04T01:38:32.717Z,20.33
2017-05-04T01:39:42.701Z,20.27
2017-05-04T01:40:52.973Z,20.33
2017-05-04T01:42:02.934Z,20.34
2017-05-04T01:43:13.222Z,20.3
2017-05-04T01:44:23.749Z,20.22
2017-05-04T01:45:33.711Z,20.34
2017-05-04T01:46:44.015Z,20.34
2017-05-04T01:47:53.983Z,20.32
2017-05-04T01:49:04.270Z,20.34
2017-05-04T01:50:14.808Z,20.37
2017-05-04T01:51:25.084Z,20.3
2017-05-04T01:52:35.365Z,20.3
2017-05-04T01:53:45.653Z,20.32
2017-05-04T01:54:55.938Z,20.37
2017-05-04T01:56:06.472Z,20.24
2017-05-04T01:57:16.438Z,20.34
2017-05-04T01:58:26.409Z,20.32
2017-05-04T01:59:36.385Z,20.32
2017-05-04T02:00:46.358Z,20.36
2017-05-04T02:01:56.891Z,20.29
2017-05-04T02:03:06.865Z,20.34
2017-05-04T02:04:16.830Z,20.34
2017-05-04T02:05:27.111Z,20.21
2017-05-04T02:06:37.395Z,20.34
2017-05-04T02:07:47.929Z,20.33
2017-05-04T02:08:58.207Z,20.32
2017-05-04T02:10:08.186Z,20.32
2017-05-04T02:11:17.844Z,20.27
2017-05-04T02:12:28.124Z,20.34
2017-05-04T02:13:38.652Z,20.34
2017-05-04T02:14:48.941Z,20.3
2017-05-04T02:15:59.378Z,20.32
2017-05-04T02:17:09.648Z,20.32
2017-05-04T02:18:19.307Z,20.3
2017-05-04T02:19:29.209Z,20.36
2017-05-04T02:20:39.489Z,20.33
2017-05-04T02:21:49.467Z,20.33
2017-05-04T02:22:59.746Z,20.19
2017-05-04T02:24:10.040Z,20.32
2017-05-04T02:25:20.565Z,20.24
2017-05-04T02:26:30.838Z,20.21
2017-05-04T02:27:41.145Z,20.24
2017-05-04T02:28:51.430Z,20.24
2017-05-04T02:30:01.705Z,20.21
2017-05-04T02:31:12.245Z,20.21
2017-05-04T02:32:22.537Z,20.21
2017-05-04T02:33:32.506Z,20.21
2017-05-04T02:34:42.786Z,20.27
2017-05-04T02:35:53.068Z,20.26
2017-05-04T02:37:03.635Z,20.18
2017-05-04T02:38:13.920Z,20.19
2017-05-04T02:39:23.890Z,20.29
2017-05-04T02:40:34.169Z,20.22
2017-05-04T02:41:44.442Z,20.22
2017-05-04T02:42:54.664Z,20.33
2017-05-04T02:44:04.939Z,20.21
2017-05-04T02:45:15.224Z,20.22
2017-05-04T02:46:25.495Z,20.29
2017-05-04T02:47:35.782Z,20.18
2017-05-04T02:48:46.340Z,20.29
2017-05-04T02:49:56.635Z,20.21
2017-05-04T02:51:06.490Z,20.26
2017-05-04T02:52:16.457Z,20.29
2017-05-04T02:53:26.739Z,20.34
2017-05-04T02:54:36.966Z,20.33
2017-05-04T02:55:46.940Z,20.33
2017-05-04T02:56:57.218Z,20.34
2017-05-04T02:58:07.180Z,20.17
2017-05-04T02:59:17.466Z,20.19
2017-05-04T03:00:27.992Z,20.21
2017-05-04T03:01:37.961Z,20.19
2017-05-04T03:02:48.248Z,20.21
2017-05-04T03:03:58.528Z,20.24
2017-05-04T03:05:08.811Z,20.33
2017-05-04T03:06:19.410Z,20.39
2017-05-04T03:07:29.692Z,20.32
2017-05-04T03:08:39.970Z,20.26
2017-05-04T03:09:49.937Z,20.34
2017-05-04T03:10:59.906Z,20.22
2017-05-04T03:12:10.445Z,20.21
2017-05-04T03:13:20.722Z,20.22
2017-05-04T03:14:30.699Z,20.21
2017-05-04T03:15:40.974Z,20.21
2017-05-04T03:16:50.965Z,20.3
2017-05-04T03:18:00.864Z,20.19
2017-05-04T03:19:11.151Z,20.22
2017-05-04T03:20:21.134Z,20.29
2017-05-04T03:21:31.409Z,20.29
2017-05-04T03:22:41.710Z,20.21
2017-05-04T03:23:52.245Z,20.29
2017-05-04T03:25:02.229Z,20.24
2017-05-04T03:26:12.214Z,20.24
2017-05-04T03:27:22.484Z,20.24
2017-05-04T03:28:32.762Z,20.27
2017-05-04T03:29:43.292Z,20.27
2017-05-04T03:30:53.255Z,20.21
2017-05-04T03:32:03.241Z,20.21
2017-05-04T03:33:13.214Z,20.21
2017-05-04T03:34:23.499Z,20.22
2017-05-04T03:35:34.022Z,20.24
2017-05-04T03:36:43.981Z,20.24
2017-05-04T03:37:54.270Z,20.22
2017-05-04T03:39:04.240Z,20.21
2017-05-04T03:40:14.211Z,20.19
2017-05-04T03:41:24.744Z,20.22
2017-05-04T03:42:34.404Z,20.19
2017-05-04T03:43:44.371Z,20.21
2017-05-04T03:44:54.645Z,20.27
2017-05-04T03:46:04.610Z,20.11
2017-05-04T03:47:15.136Z,20.17
2017-05-04T03:48:25.411Z,20.12
2017-05-04T03:49:35.071Z,20.12
2017-05-04T03:50:45.346Z,20.19
2017-05-04T03:51:55.615Z,20.26
2017-05-04T03:53:06.199Z,20.14
2017-05-04T03:54:16.502Z,20.12
2017-05-04T03:55:26.507Z,20.14
2017-05-04T03:56:36.774Z,20.14
2017-05-04T03:57:47.060Z,20.12
2017-05-04T03:58:56.965Z,20.19
2017-05-04T04:00:07.242Z,20.11
2017-05-04T04:01:17.516Z,20.1
2017-05-04T04:02:27.796Z,20.12
2017-05-04T04:03:38.074Z,20.11
2017-05-04T04:04:48.603Z,20.18
2017-05-04T04:05:58.891Z,20.22
2017-05-04T04:07:09.178Z,20.21
2017-05-04T04:08:19.452Z,20.19
2017-05-04T04:09:29.724Z,20.22
2017-05-04T04:10:39.684Z,20.21
2017-05-04T04:11:49.647Z,20.24
2017-05-04T04:12:59.929Z,20.33
2017-05-04T04:14:10.202Z,20.21
2017-05-04T04:15:20.481Z,20.15
2017-05-04T04:16:30.704Z,20.22
2017-05-04T04:17:40.987Z,20.19
2017-05-04T04:18:50.964Z,20.32
2017-05-04T04:20:00.967Z,20.27
2017-05-04T04:21:11.242Z,20.29
2017-05-04T04:22:21.465Z,20.33
2017-05-04T04:23:31.742Z,20.26
2017-05-04T04:24:42.025Z,20.36
2017-05-04T04:25:52.000Z,20.32
2017-05-04T04:27:02.280Z,20.37
2017-05-04T04:28:12.820Z,20.26
2017-05-04T04:29:22.785Z,20.33
2017-05-04T04:30:33.059Z,20.34
2017-05-04T04:31:43.032Z,20.34
2017-05-04T04:32:53.004Z,20.32
2017-05-04T04:34:03.218Z,20.32
2017-05-04T04:35:13.532Z,20.32
2017-05-04T04:36:23.500Z,20.32
2017-05-04T04:37:33.789Z,20.22
2017-05-04T04:38:44.113Z,20.34
2017-05-04T04:39:54.663Z,20.34
2017-05-04T04:41:05.062Z,20.3
2017-05-04T04:42:15.054Z,20.22
2017-05-04T04:43:25.341Z,20.17
2017-05-04T04:44:35.011Z,20.21
2017-05-04T04:45:45.540Z,20.21
2017-05-04T04:46:55.811Z,20.19
2017-05-04T04:48:06.093Z,20.24
2017-05-04T04:49:16.058Z,20.22
2017-05-04T04:50:26.030Z,20.27
2017-05-04T04:51:36.240Z,20.17
2017-05-04T04:52:46.515Z,20.27
2017-05-04T04:53:56.786Z,20.24
2017-05-04T04:55:07.063Z,20.3
2017-05-04T04:56:17.345Z,20.21
2017-05-04T04:57:27.869Z,20.19
2017-05-04T04:58:38.148Z,20.22
2017-05-04T04:59:48.427Z,20.19
2017-05-04T05:00:58.721Z,20.26
2017-05-04T05:02:09.003Z,20.12
2017-05-04T05:03:19.529Z,20.19
2017-05-04T05:04:29.504Z,20.24
2017-05-04T05:05:39.796Z,20.19
2017-05-04T05:06:50.076Z,20.17
2017-05-04T05:08:00.345Z,20.24
2017-05-04T05:09:10.856Z,20.22
2017-05-04T05:10:21.148Z,20.21
2017-05-04T05:11:31.441Z,20.19
2017-05-04T05:12:41.095Z,20.21
2017-05-04T05:13:51.061Z,20.17
2017-05-04T05:15:01.599Z,20.22
2017-05-04T05:16:11.885Z,20.18
2017-05-04T05:17:22.159Z,20.18
2017-05-04T05:18:32.136Z,20.24
2017-05-04T05:19:42.416Z,20.17
2017-05-04T05:20:52.646Z,20.19
2017-05-04T05:22:02.925Z,20.22
2017-05-04T05:23:12.893Z,20.21
2017-05-04T05:24:23.179Z,20.19
2017-05-04T05:25:33.453Z,20.21
2017-05-04T05:26:43.664Z,20.19
2017-05-04T05:27:53.953Z,20.22
2017-05-04T05:29:03.926Z,20.21
2017-05-04T05:30:13.896Z,20.19
2017-05-04T05:31:24.197Z,20.22
2017-05-04T05:32:34.465Z,20.17
2017-05-04T05:33:44.452Z,20.24
2017-05-04T05:34:54.420Z,20.21
2017-05-04T05:36:04.696Z,20.19
2017-05-04T05:37:14.971Z,20.22
2017-05-04T05:38:25.737Z,20.22
2017-05-04T05:39:36.011Z,20.22
2017-05-04T05:40:45.671Z,20.21
2017-05-04T05:41:55.951Z,20.22
2017-05-04T05:43:06.231Z,20.17
2017-05-04T05:44:16.763Z,20.12
2017-05-04T05:45:27.053Z,20.26
2017-05-04T05:46:37.336Z,20.15
2017-05-04T05:47:47.629Z,20.14
2017-05-04T05:48:57.910Z,20.18
2017-05-04T05:50:08.445Z,20.18
2017-05-04T05:51:18.832Z,20.22
2017-05-04T05:52:29.116Z,20.22
2017-05-04T05:53:39.083Z,20.19
2017-05-04T05:54:48.763Z,20.19
2017-05-04T05:55:58.989Z,20.19
2017-05-04T05:57:09.276Z,20.17
2017-05-04T05:58:19.567Z,20.19
2017-05-04T05:59:29.540Z,20.19
2017-05-04T06:00:39.824Z,20.15
2017-05-04T06:01:50.450Z,20.19
2017-05-04T06:03:00.766Z,20.19
2017-05-04T06:04:11.076Z,20.24
2017-05-04T06:05:21.084Z,20.19
2017-05-04T06:06:31.062Z,20.21
2017-05-04T06:07:41.606Z,20.15
2017-05-04T06:08:51.894Z,20.26
2017-05-04T06:10:01.589Z,20.21
2017-05-04T06:11:11.883Z,20.19
2017-05-04T06:12:21.877Z,20.24
2017-05-04T06:13:32.440Z,20.24
2017-05-04T06:14:42.742Z,20.24
2017-05-04T06:15:53.041Z,20.26
2017-05-04T06:17:03.024Z,20.24
2017-05-04T06:18:13.005Z,20.22
2017-05-04T06:19:23.535Z,20.21
2017-05-04T06:20:33.528Z,20.19
2017-05-04T06:21:43.215Z,20.22
2017-05-04T06:22:53.187Z,20.24
2017-05-04T06:24:03.504Z,20.19
2017-05-04T06:25:14.098Z,20.22
2017-05-04T06:26:24.406Z,20.19
2017-05-04T06:27:34.638Z,20.21
2017-05-04T06:28:44.974Z,20.24
2017-05-04T06:29:55.267Z,20.21
2017-05-04T06:31:05.872Z,20.21
2017-05-04T06:32:16.196Z,20.21
2017-05-04T06:33:26.716Z,20.19
2017-05-04T06:34:36.394Z,20.21
2017-05-04T06:35:46.365Z,20.24
2017-05-04T06:36:56.891Z,20.26
2017-05-04T06:38:07.175Z,20.21
2017-05-04T06:39:17.152Z,20.24
2017-05-04T06:40:27.137Z,20.22
2017-05-04T06:41:37.454Z,20.15
2017-05-04T06:42:47.678Z,20.24
2017-05-04T06:43:57.663Z,20.19
2017-05-04T06:45:07.661Z,20.24
2017-05-04T06:46:17.633Z,20.24
2017-05-04T06:47:27.922Z,20.24
2017-05-04T06:48:38.459Z,20.18
2017-05-04T06:49:48.735Z,20.24
2017-05-04T06:50:59.035Z,20.21
2017-05-04T06:52:09.333Z,20.24
2017-05-04T06:53:19.656Z,20.22
2017-05-04T06:54:30.197Z,20.18
2017-05-04T06:55:40.172Z,20.21
2017-05-04T06:56:50.463Z,20.22
2017-05-04T06:58:00.456Z,20.24
2017-05-04T06:59:10.436Z,20.18
2017-05-04T07:00:20.031Z,20.24
2017-05-04T07:01:30.082Z,20.33
2017-05-04T07:02:39.754Z,20.3
2017-05-04T07:03:50.293Z,20.32
2017-05-04T07:05:00.305Z,20.19
2017-05-04T07:06:10.908Z,20.33
2017-05-04T07:07:21.200Z,20.34
2017-05-04T07:08:31.493Z,20.24
2017-05-04T07:09:41.497Z,20.3
2017-05-04T07:10:51.825Z,20.17
2017-05-04T07:12:02.425Z,20.19
2017-05-04T07:13:12.704Z,20.3
2017-05-04T07:14:23.006Z,20.22
2017-05-04T07:15:32.990Z,20.24
2017-05-04T07:16:43.294Z,20.21
2017-05-04T07:17:53.875Z,20.21
2017-05-04T07:19:04.456Z,20.18
2017-05-04T07:20:14.467Z,20.22
2017-05-04T07:21:24.476Z,20.18
2017-05-04T07:22:34.812Z,20.19
2017-05-04T07:23:45.046Z,20.22
2017-05-04T07:24:55.023Z,20.17
2017-05-04T07:26:04.683Z,20.24
2017-05-04T07:27:14.967Z,20.24
2017-05-04T07:28:25.249Z,20.19
2017-05-04T07:29:35.789Z,20.21
2017-05-04T07:30:46.071Z,20.29
2017-05-04T07:31:56.382Z,20.24
2017-05-04T07:33:06.665Z,20.27
2017-05-04T07:34:16.945Z,20.33
2017-05-04T07:35:27.159Z,20.24
2017-05-04T07:36:37.449Z,20.27
2017-05-04T07:37:47.435Z,20.27
2017-05-04T07:38:57.719Z,20.18
2017-05-04T07:40:07.692Z,20.22
2017-05-04T07:41:18.230Z,20.26
2017-05-04T07:42:28.530Z,20.19
2017-05-04T07:43:38.816Z,20.22
2017-05-04T07:44:48.800Z,20.22
2017-05-04T07:45:58.770Z,20.33
2017-05-04T07:47:09.358Z,20.36
2017-05-04T07:48:19.681Z,20.36
2017-05-04T07:49:29.975Z,20.33
2017-05-04T07:50:40.260Z,20.33
2017-05-04T07:51:50.556Z,20.32
2017-05-04T07:53:01.111Z,20.24
2017-05-04T07:54:11.403Z,20.34
2017-05-04T07:55:21.697Z,20.32
2017-05-04T07:56:31.986Z,20.33
2017-05-04T07:57:41.963Z,20.33
2017-05-04T07:58:52.530Z,20.36
2017-05-04T08:00:02.847Z,20.34
2017-05-04T08:01:12.714Z,20.36
2017-05-04T08:02:22.707Z,20.39
2017-05-04T08:03:33.008Z,20.32
2017-05-04T08:04:43.604Z,20.33
2017-05-04T08:05:53.899Z,20.32
2017-05-04T08:07:04.195Z,20.26
2017-05-04T08:08:13.570Z,20.27
2017-05-04T08:09:23.874Z,20.36
2017-05-04T08:10:34.427Z,20.34
2017-05-04T08:11:44.717Z,20.36
2017-05-04T08:12:54.689Z,20.29
2017-05-04T08:14:05.021Z,20.44
2017-05-04T08:15:15.309Z,20.42
2017-05-04T08:16:25.861Z,20.53
2017-05-04T08:17:36.144Z,20.44
2017-05-04T08:18:46.694Z,20.49
2017-05-04T08:19:56.999Z,20.55
2017-05-04T08:21:07.286Z,20.48
2017-05-04T08:22:17.570Z,20.49
2017-05-04T08:23:27.548Z,20.53
2017-05-04T08:24:37.527Z,20.48
2017-05-04T08:25:47.509Z,20.42
2017-05-04T08:26:57.482Z,20.48
2017-05-04T08:28:07.712Z,20.44
2017-05-04T08:29:18.013Z,20.49
2017-05-04T08:30:28.317Z,20.46
2017-05-04T08:31:38.300Z,20.4
2017-05-04T08:32:47.983Z,20.4
2017-05-04T08:33:58.520Z,20.4
2017-05-04T08:35:08.496Z,20.44
2017-05-04T08:36:18.835Z,20.5
2017-05-04T08:37:29.124Z,20.46
2017-05-04T08:38:39.119Z,20.44
2017-05-04T08:39:49.667Z,20.55
2017-05-04T08:40:59.958Z,20.58
2017-05-04T08:42:10.249Z,20.58
2017-05-04T08:43:20.534Z,20.5
2017-05-04T08:44:30.829Z,20.5
2017-05-04T08:45:41.442Z,20.56
2017-05-04T08:46:51.777Z,20.46
2017-05-04T08:48:02.091Z,20.52
2017-05-04T08:49:12.385Z,20.53
2017-05-04T08:50:22.685Z,20.52
2017-05-04T08:51:33.294Z,20.55
2017-05-04T08:52:43.623Z,20.5
2017-05-04T08:53:53.917Z,20.5
2017-05-04T08:55:04.225Z,20.56
2017-05-04T08:56:14.205Z,20.59
2017-05-04T08:57:24.758Z,20.58
2017-05-04T08:58:34.737Z,20.55
2017-05-04T08:59:44.737Z,20.64
2017-05-04T09:00:55.036Z,20.67
2017-05-04T09:02:05.319Z,20.64
2017-05-04T09:03:15.862Z,20.67
2017-05-04T09:04:26.165Z,20.66
2017-05-04T09:05:36.146Z,20.64
2017-05-04T09:06:46.429Z,20.67
2017-05-04T09:07:56.728Z,20.64
2017-05-04T09:09:07.012Z,20.64
2017-05-04T09:10:17.282Z,20.6
2017-05-04T09:11:27.251Z,20.71
2017-05-04T09:12:37.229Z,20.64
2017-05-04T09:13:47.690Z,20.6
2017-05-04T09:14:58.258Z,20.59
2017-05-04T09:16:08.230Z,20.6
2017-05-04T09:17:18.509Z,20.6
2017-05-04T09:18:28.790Z,20.67
2017-05-04T09:19:39.073Z,20.59
2017-05-04T09:20:49.653Z,20.63
2017-05-04T09:21:59.634Z,20.6
2017-05-04T09:23:09.921Z,20.67
2017-05-04T09:24:20.209Z,20.58
2017-05-04T09:25:30.504Z,20.6
2017-05-04T09:26:40.751Z,20.6
2017-05-04T09:27:51.046Z,20.58
2017-05-04T09:29:01.049Z,20.6
2017-05-04T09:30:11.356Z,20.66
2017-05-04T09:31:21.669Z,20.59
2017-05-04T09:32:31.894Z,20.56
2017-05-04T09:33:42.196Z,20.67
2017-05-04T09:34:52.201Z,20.64
2017-05-04T09:36:02.482Z,20.6
2017-05-04T09:37:12.795Z,20.63
2017-05-04T09:38:23.330Z,20.67
2017-05-04T09:39:33.646Z,20.59
2017-05-04T09:40:43.948Z,20.67
2017-05-04T09:41:54.262Z,20.63
2017-05-04T09:43:04.564Z,20.67
2017-05-04T09:44:14.586Z,20.66
2017-05-04T09:45:24.561Z,20.59
2017-05-04T09:46:34.877Z,20.55
2017-05-04T09:47:45.175Z,20.68
2017-05-04T09:48:55.155Z,20.63
2017-05-04T09:50:05.716Z,20.67
2017-05-04T09:51:16.006Z,20.7
2017-05-04T09:52:26.296Z,20.67
2017-05-04T09:53:36.272Z,20.67
2017-05-04T09:54:46.574Z,20.63
2017-05-04T09:55:57.134Z,20.67
2017-05-04T09:57:07.419Z,20.67
2017-05-04T09:58:17.709Z,20.64
2017-05-04T09:59:28.030Z,20.66
2017-05-04T10:00:38.319Z,20.66
2017-05-04T10:01:48.544Z,20.68
2017-05-04T10:02:58.519Z,20.64
2017-05-04T10:04:08.802Z,20.67
2017-05-04T10:05:18.777Z,20.67
2017-05-04T10:06:29.069Z,20.6
2017-05-04T10:07:39.292Z,20.67
2017-05-04T10:08:49.269Z,20.67
2017-05-04T10:09:58.953Z,20.64
2017-05-04T10:11:09.248Z,20.7
2017-05-04T10:12:19.533Z,20.71
2017-05-04T10:13:30.078Z,20.73
2017-05-04T10:14:40.051Z,20.7
2017-05-04T10:15:50.337Z,20.71
2017-05-04T10:17:00.617Z,20.6
2017-05-04T10:18:10.928Z,20.66
2017-05-04T10:19:21.170Z,20.74
2017-05-04T10:20:31.467Z,20.63
2017-05-04T10:21:41.761Z,20.67
2017-05-04T10:22:52.080Z,20.73
2017-05-04T10:24:02.389Z,20.73
2017-05-04T10:25:12.925Z,20.77
2017-05-04T10:26:23.209Z,20.66
2017-05-04T10:27:32.556Z,20.74
2017-05-04T10:28:42.536Z,20.77
2017-05-04T10:29:52.508Z,20.73
2017-05-04T10:31:02.759Z,20.74
2017-05-04T10:32:13.064Z,20.73
2017-05-04T10:33:23.349Z,20.7
2017-05-04T10:34:33.022Z,20.74
2017-05-04T10:35:43.302Z,20.75
2017-05-04T10:36:53.890Z,20.71
2017-05-04T10:38:04.186Z,20.73
2017-05-04T10:39:14.464Z,20.8
2017-05-04T10:40:24.145Z,20.68
2017-05-04T10:41:34.419Z,20.75
2017-05-04T10:42:44.361Z,20.73
2017-05-04T10:43:54.376Z,20.75
2017-05-04T10:45:04.672Z,20.74
2017-05-04T10:46:14.019Z,20.7
2017-05-04T10:47:24.315Z,20.77
2017-05-04T10:48:34.532Z,20.78
2017-05-04T10:49:44.852Z,20.74
2017-05-04T10:50:55.149Z,20.83
2017-05-04T10:52:05.109Z,20.74
2017-05-04T10:53:15.396Z,20.78
2017-05-04T10:54:25.926Z,20.75
2017-05-04T10:55:36.207Z,20.73
2017-05-04T10:56:46.521Z,20.78
2017-05-04T10:57:56.821Z,20.73
2017-05-04T10:59:06.183Z,20.77
2017-05-04T11:00:16.774Z,20.73
2017-05-04T11:01:26.744Z,20.82
2017-05-04T11:02:37.040Z,20.78
2017-05-04T11:03:47.369Z,20.71
2017-05-04T11:04:57.682Z,20.75
2017-05-04T11:06:07.917Z,20.78
2017-05-04T11:07:18.243Z,20.8
2017-05-04T11:08:28.530Z,20.83
2017-05-04T11:09:38.805Z,20.75
2017-05-04T11:10:48.777Z,20.71
2017-05-04T11:11:59.317Z,20.67
2017-05-04T11:13:09.287Z,20.78
2017-05-04T11:14:18.638Z,20.7
2017-05-04T11:15:28.921Z,20.78
2017-05-04T11:16:39.219Z,20.7
2017-05-04T11:17:49.754Z,20.75
2017-05-04T11:19:00.030Z,20.77
2017-05-04T11:20:10.318Z,20.75
2017-05-04T11:21:20.598Z,20.75
2017-05-04T11:22:30.262Z,20.8
2017-05-04T11:23:40.488Z,20.74
2017-05-04T11:24:50.780Z,20.74
2017-05-04T11:26:01.062Z,20.78
2017-05-04T11:27:11.362Z,20.78
2017-05-04T11:28:21.640Z,20.78
2017-05-04T11:29:32.167Z,20.75
2017-05-04T11:30:42.148Z,20.86
2017-05-04T11:31:52.431Z,20.82
2017-05-04T11:33:02.725Z,20.85
2017-05-04T11:34:12.697Z,20.83
2017-05-04T11:35:23.275Z,20.77
2017-05-04T11:36:33.256Z,20.86
2017-05-04T11:37:42.601Z,20.85
2017-05-04T11:38:52.286Z,20.83
2017-05-04T11:40:02.262Z,20.85
2017-05-04T11:41:12.496Z,20.85
2017-05-04T11:42:22.468Z,20.85
2017-05-04T11:43:32.782Z,20.85
2017-05-04T11:44:43.078Z,20.86
2017-05-04T11:45:53.080Z,20.85
2017-05-04T11:47:03.660Z,20.88
2017-05-04T11:48:13.958Z,20.88
2017-05-04T11:49:24.256Z,20.88
2017-05-04T11:50:34.538Z,20.88
2017-05-04T11:51:44.517Z,20.89
2017-05-04T11:52:55.108Z,20.92
2017-05-04T11:54:05.391Z,20.92
2017-05-04T11:55:15.686Z,20.92
2017-05-04T11:56:25.980Z,20.93
2017-05-04T11:57:36.050Z,20.9
2017-05-04T11:58:45.969Z,20.95
2017-05-04T11:59:56.261Z,20.85
2017-05-04T12:01:06.556Z,20.89
2017-05-04T12:02:16.858Z,20.92
2017-05-04T12:03:27.143Z,20.82
2017-05-04T12:04:37.390Z,20.9
2017-05-04T12:05:47.682Z,20.88
2017-05-04T12:06:57.665Z,20.88
2017-05-04T12:08:07.661Z,20.89
2017-05-04T12:09:17.961Z,20.9
2017-05-04T12:10:28.570Z,20.89
2017-05-04T12:11:38.843Z,20.89
2017-05-04T12:12:49.151Z,20.92
2017-05-04T12:13:59.454Z,20.96
2017-05-04T12:15:09.756Z,20.86
2017-05-04T12:16:20.307Z,20.92
2017-05-04T12:17:30.590Z,20.89
2017-05-04T12:18:40.885Z,20.9
2017-05-04T12:19:51.206Z,20.9
2017-05-04T12:21:01.487Z,20.92
2017-05-04T12:22:11.712Z,20.93
2017-05-04T12:23:22.002Z,20.9
2017-05-04T12:24:32.302Z,20.92
2017-05-04T12:25:42.279Z,20.89
2017-05-04T12:26:52.570Z,20.86
2017-05-04T12:28:02.807Z,20.83
2017-05-04T12:29:12.781Z,20.9
2017-05-04T12:30:23.067Z,20.86
2017-05-04T12:31:33.040Z,20.83
2017-05-04T12:32:43.033Z,20.88
2017-05-04T12:33:53.574Z,20.88
2017-05-04T12:35:03.865Z,20.88
2017-05-04T12:36:14.149Z,20.95
2017-05-04T12:37:24.121Z,20.86
2017-05-04T12:38:34.442Z,20.89
2017-05-04T12:39:44.982Z,20.85
2017-05-04T12:40:54.659Z,20.82
2017-05-04T12:42:04.325Z,20.95
2017-05-04T12:43:14.829Z,20.82
2017-05-04T12:44:24.831Z,20.86
2017-05-04T12:45:35.376Z,20.83
2017-05-04T12:46:45.040Z,20.86
2017-05-04T12:47:55.325Z,20.89
2017-05-04T12:49:05.301Z,20.77
2017-05-04T12:50:15.606Z,20.77
2017-05-04T12:51:25.574Z,20.83
2017-05-04T12:52:35.871Z,20.78
2017-05-04T12:53:45.854Z,20.73
2017-05-04T12:54:56.138Z,20.78
2017-05-04T12:56:05.801Z,20.73
2017-05-04T12:57:16.384Z,20.73
2017-05-04T12:58:26.359Z,20.75
2017-05-04T12:59:36.670Z,20.71
2017-05-04T13:00:46.657Z,20.71
2017-05-04T13:01:56.970Z,20.78
2017-05-04T13:03:07.511Z,20.71
2017-05-04T13:04:17.783Z,20.73
2017-05-04T13:05:28.070Z,20.75
2017-05-04T13:06:38.367Z,20.74
2017-05-04T13:07:48.349Z,20.8
2017-05-04T13:08:58.579Z,20.78
2017-05-04T13:10:08.882Z,20.75
2017-05-04T13:11:19.173Z,20.73
2017-05-04T13:12:29.466Z,20.75
2017-05-04T13:13:39.760Z,20.8
2017-05-04T13:14:50.308Z,20.77
2017-05-04T13:16:00.586Z,20.75
2017-05-04T13:17:10.566Z,20.86
2017-05-04T13:18:20.850Z,20.83
2017-05-04T13:19:31.127Z,20.75
2017-05-04T13:20:41.344Z,20.74
2017-05-04T13:21:51.631Z,20.7
2017-05-04T13:23:01.908Z,20.78
2017-05-04T13:24:11.877Z,20.77
2017-05-04T13:25:22.160Z,20.73
2017-05-04T13:26:32.728Z,20.73
2017-05-04T13:27:43.011Z,20.78
2017-05-04T13:28:53.316Z,20.74
2017-05-04T13:30:03.618Z,20.75
2017-05-04T13:31:13.922Z,20.64
2017-05-04T13:32:24.454Z,20.74
2017-05-04T13:33:34.735Z,20.74
2017-05-04T13:34:44.398Z,20.71
2017-05-04T13:35:54.688Z,20.67
2017-05-04T13:37:04.665Z,20.71
2017-05-04T13:38:14.894Z,20.75
2017-05-04T13:39:25.179Z,20.7
2017-05-04T13:40:35.459Z,20.74
2017-05-04T13:41:45.743Z,20.68
2017-05-04T13:42:56.045Z,20.75
2017-05-04T13:44:06.277Z,20.67
2017-05-04T13:45:16.558Z,20.73
2017-05-04T13:46:26.872Z,20.67
2017-05-04T13:47:37.153Z,20.71
2017-05-04T13:48:47.449Z,20.7
2017-05-04T13:49:57.997Z,20.74
2017-05-04T13:51:08.273Z,20.74
2017-05-04T13:52:18.569Z,20.64
2017-05-04T13:53:28.855Z,20.64
2017-05-04T13:54:39.138Z,20.68
2017-05-04T13:55:49.671Z,20.71
2017-05-04T13:56:59.959Z,20.71
2017-05-04T13:58:10.240Z,20.68
2017-05-04T13:59:20.227Z,20.7
2017-05-04T14:00:30.509Z,20.67
2017-05-04T14:01:41.123Z,20.67
2017-05-04T14:02:51.098Z,20.68
2017-05-04T14:04:01.385Z,20.6
2017-05-04T14:05:11.047Z,20.66
2017-05-04T14:06:21.026Z,20.67
2017-05-04T14:07:31.566Z,20.7
2017-05-04T14:08:41.870Z,20.71
2017-05-04T14:09:51.850Z,20.64
2017-05-04T14:11:01.833Z,20.63
2017-05-04T14:12:11.834Z,20.64
2017-05-04T14:13:22.047Z,20.66
2017-05-04T14:14:32.011Z,20.67
2017-05-04T14:15:42.286Z,20.66
2017-05-04T14:16:52.570Z,20.64
2017-05-04T14:18:02.541Z,20.67
2017-05-04T14:19:13.082Z,20.6
2017-05-04T14:20:23.370Z,20.67
2017-05-04T14:21:33.646Z,20.64
2017-05-04T14:22:43.933Z,20.64
2017-05-04T14:23:54.211Z,20.66
2017-05-04T14:25:04.748Z,20.66
2017-05-04T14:26:15.020Z,20.59
2017-05-04T14:27:25.001Z,20.66
2017-05-04T14:28:35.302Z,20.67
2017-05-04T14:29:45.620Z,20.63
2017-05-04T14:30:56.150Z,20.55
2017-05-04T14:32:06.119Z,20.56
2017-05-04T14:33:16.087Z,20.53
2017-05-04T14:34:26.068Z,20.66
2017-05-04T14:35:36.031Z,20.58
2017-05-04T14:36:46.256Z,20.53
2017-05-04T14:37:56.539Z,20.55
2017-05-04T14:39:06.552Z,20.53
2017-05-04T14:40:16.822Z,20.63
2017-05-04T14:41:27.103Z,20.59
2017-05-04T14:42:37.335Z,20.56
2017-05-04T14:43:47.616Z,20.6
2017-05-04T14:44:57.893Z,20.59
2017-05-04T14:46:08.179Z,20.53
2017-05-04T14:47:18.464Z,20.48
2017-05-04T14:48:28.995Z,20.53
2017-05-04T14:49:39.278Z,20.5
2017-05-04T14:50:49.265Z,20.49
2017-05-04T14:51:59.246Z,20.53
2017-05-04T14:53:09.207Z,20.48
2017-05-04T14:54:19.839Z,20.52
2017-05-04T14:55:30.113Z,20.44
2017-05-04T14:56:39.472Z,20.44
2017-05-04T14:57:49.155Z,20.44
2017-05-04T14:58:59.445Z,20.48
2017-05-04T15:00:09.344Z,20.52
2017-05-04T15:01:19.617Z,20.52
2017-05-04T15:02:29.914Z,20.5
2017-05-04T15:03:40.193Z,20.5
2017-05-04T15:04:50.474Z,20.5
2017-05-04T15:06:00.717Z,20.48
2017-05-04T15:07:10.690Z,20.53